ENT8315 LICB-EHEH
Flight info
| Callsign | ENT8315 |
|---|---|
| Flight time | 2h 34m |
| Altitude | 38000 |
| Route | ENEPA DCT AMANO DCT GILIO DCT UPDIN DCT BETEN DCT AOSTA DCT ORSUD DCT MOLUS DCT GILIR DCT PENDU DCT IXILU DCT DIBEX DCT DANAR DCT EPL DCT NANCY DCT JARNY DCT ROUSY DCT DIK DCT GOPAS DCT GESLO DCT LNO |
| Aircraft | B738/M-VGDW/C |
Departure
| Time | 2026-04-26 04:54 |
|---|---|
| Airport | Comiso Airport (LICB) |
Arrival
| Time | 2026-04-26 07:29 |
|---|---|
| Airport | Eindhoven Airport (EHEH) |
| Time | Latitude | Longitude | Altitude | Speed | Heading |
|---|---|---|---|---|---|
| 2026-04-26 04:42 | 36.99803 | 14.60798 | 720 ft | 0 kts | 343° |
| 2026-04-26 04:45 | 36.99798 | 14.60800 | 719 ft | 2 kts | 343° |
| 2026-04-26 04:45 | 36.99782 | 14.60806 | 720 ft | 2 kts | 343° |
| 2026-04-26 04:46 | 36.99767 | 14.60812 | 719 ft | 2 kts | 343° |
| 2026-04-26 04:46 | 36.99751 | 14.60818 | 720 ft | 2 kts | 343° |
| 2026-04-26 04:46 | 36.99749 | 14.60819 | 720 ft | 0 kts | 343° |
| 2026-04-26 04:49 | 36.99748 | 14.60807 | 720 ft | 2 kts | 240° |
| 2026-04-26 04:50 | 36.99724 | 14.60795 | 720 ft | 7 kts | 204° |
| 2026-04-26 04:50 | 36.99674 | 14.60767 | 722 ft | 9 kts | 202° |
| 2026-04-26 04:50 | 36.99611 | 14.60737 | 720 ft | 10 kts | 200° |
| 2026-04-26 04:50 | 36.99538 | 14.60704 | 724 ft | 12 kts | 200° |
| 2026-04-26 04:51 | 36.99459 | 14.60657 | 722 ft | 13 kts | 206° |
| 2026-04-26 04:51 | 36.99381 | 14.60589 | 723 ft | 15 kts | 233° |
| 2026-04-26 04:51 | 36.99311 | 14.60481 | 720 ft | 17 kts | 231° |
| 2026-04-26 04:51 | 36.99232 | 14.60362 | 721 ft | 19 kts | 229° |
| 2026-04-26 04:52 | 36.99142 | 14.60230 | 721 ft | 21 kts | 230° |
| 2026-04-26 04:52 | 36.99046 | 14.60087 | 722 ft | 21 kts | 230° |
| 2026-04-26 04:52 | 36.98962 | 14.59961 | 720 ft | 17 kts | 230° |
| 2026-04-26 04:52 | 36.98888 | 14.59849 | 722 ft | 14 kts | 231° |
| 2026-04-26 04:53 | 36.98857 | 14.59746 | 722 ft | 13 kts | 275° |
| 2026-04-26 04:53 | 36.98820 | 14.59716 | 722 ft | 8 kts | 120° |
| 2026-04-26 04:53 | 36.98837 | 14.59778 | 722 ft | 8 kts | 49° |
| 2026-04-26 04:53 | 36.98879 | 14.59839 | 723 ft | 15 kts | 51° |
| 2026-04-26 04:54 | 36.99106 | 14.60177 | 719 ft | 87 kts | 50° |
| 2026-04-26 04:54 | 36.99636 | 14.60981 | 722 ft | 150 kts | 52° |
| 2026-04-26 04:54 | 37.00336 | 14.62042 | 1235 ft | 162 kts | 48° |
| 2026-04-26 04:54 | 37.01197 | 14.62965 | 1948 ft | 166 kts | 15° |
| 2026-04-26 04:55 | 37.02339 | 14.62810 | 2439 ft | 179 kts | 324° |
| 2026-04-26 04:55 | 37.02996 | 14.61528 | 3081 ft | 183 kts | 277° |
| 2026-04-26 04:55 | 37.02742 | 14.59958 | 3706 ft | 193 kts | 239° |
| 2026-04-26 04:55 | 37.01765 | 14.58688 | 4058 ft | 216 kts | 214° |
| 2026-04-26 04:56 | 37.00261 | 14.58210 | 4241 ft | 238 kts | 173° |
| 2026-04-26 04:56 | 36.98626 | 14.58770 | 4659 ft | 248 kts | 163° |
| 2026-04-26 04:56 | 36.96921 | 14.59273 | 5080 ft | 260 kts | 177° |
| 2026-04-26 04:56 | 36.95100 | 14.58885 | 5503 ft | 273 kts | 205° |
| 2026-04-26 04:57 | 36.93570 | 14.57498 | 6295 ft | 274 kts | 229° |
| 2026-04-26 04:57 | 36.92600 | 14.55459 | 7041 ft | 276 kts | 252° |
| 2026-04-26 04:57 | 36.92329 | 14.53084 | 7752 ft | 279 kts | 275° |
| 2026-04-26 04:57 | 36.92825 | 14.50753 | 8509 ft | 281 kts | 297° |
| 2026-04-26 04:58 | 36.93986 | 14.48839 | 9247 ft | 283 kts | 319° |
| 2026-04-26 04:58 | 36.95675 | 14.47561 | 10000 ft | 285 kts | 339° |
| 2026-04-26 04:58 | 36.97638 | 14.47064 | 10536 ft | 296 kts | 356° |
| 2026-04-26 04:58 | 36.99775 | 14.46990 | 10700 ft | 319 kts | 359° |
| 2026-04-26 04:59 | 37.02077 | 14.46989 | 10865 ft | 341 kts | 360° |
| 2026-04-26 04:59 | 37.04499 | 14.47016 | 11257 ft | 353 kts | 0° |
| 2026-04-26 04:59 | 37.06983 | 14.47054 | 11890 ft | 357 kts | 0° |
| 2026-04-26 04:59 | 37.09475 | 14.47091 | 12591 ft | 360 kts | 0° |
| 2026-04-26 05:00 | 37.11997 | 14.47126 | 13213 ft | 365 kts | 0° |
| 2026-04-26 05:00 | 37.14509 | 14.46900 | 13806 ft | 369 kts | 345° |
| 2026-04-26 05:00 | 37.16878 | 14.45668 | 14413 ft | 370 kts | 330° |
| 2026-04-26 05:00 | 37.19119 | 14.44043 | 15041 ft | 373 kts | 329° |
| 2026-04-26 05:01 | 37.21372 | 14.42390 | 15630 ft | 376 kts | 329° |
| 2026-04-26 05:01 | 37.23634 | 14.40696 | 16219 ft | 380 kts | 328° |
| 2026-04-26 05:01 | 37.25904 | 14.38978 | 16825 ft | 382 kts | 328° |
| 2026-04-26 05:01 | 37.28190 | 14.37244 | 17412 ft | 386 kts | 328° |
| 2026-04-26 05:02 | 37.30496 | 14.35496 | 17986 ft | 389 kts | 328° |
| 2026-04-26 05:02 | 37.32825 | 14.33734 | 18545 ft | 392 kts | 328° |
| 2026-04-26 05:02 | 37.35173 | 14.31959 | 19038 ft | 395 kts | 328° |
| 2026-04-26 05:02 | 37.37520 | 14.30187 | 19533 ft | 398 kts | 328° |
| 2026-04-26 05:03 | 37.39905 | 14.28385 | 20031 ft | 401 kts | 328° |
| 2026-04-26 05:03 | 37.42310 | 14.26568 | 20523 ft | 404 kts | 328° |
| 2026-04-26 05:03 | 37.44731 | 14.24738 | 20999 ft | 407 kts | 328° |
| 2026-04-26 05:03 | 37.47171 | 14.22891 | 21469 ft | 410 kts | 328° |
| 2026-04-26 05:04 | 37.49630 | 14.21030 | 21937 ft | 413 kts | 328° |
| 2026-04-26 05:04 | 37.52101 | 14.19156 | 22384 ft | 417 kts | 328° |
| 2026-04-26 05:04 | 37.54596 | 14.17264 | 22833 ft | 420 kts | 328° |
| 2026-04-26 05:04 | 37.57107 | 14.15357 | 23276 ft | 422 kts | 328° |
| 2026-04-26 05:05 | 37.59600 | 14.13463 | 23710 ft | 425 kts | 328° |
| 2026-04-26 05:05 | 37.62144 | 14.11529 | 24079 ft | 428 kts | 328° |
| 2026-04-26 05:05 | 37.64705 | 14.09580 | 24473 ft | 429 kts | 328° |
| 2026-04-26 05:05 | 37.67267 | 14.07629 | 24857 ft | 431 kts | 328° |
| 2026-04-26 05:06 | 37.69841 | 14.05666 | 25228 ft | 433 kts | 328° |
| 2026-04-26 05:06 | 37.72434 | 14.03689 | 25588 ft | 435 kts | 328° |
| 2026-04-26 05:06 | 37.75032 | 14.01706 | 25941 ft | 437 kts | 328° |
| 2026-04-26 05:06 | 37.77767 | 14.00009 | 26237 ft | 441 kts | 342° |
| 2026-04-26 05:07 | 37.80796 | 13.99337 | 26590 ft | 443 kts | 353° |
| 2026-04-26 05:07 | 37.83871 | 13.98972 | 26950 ft | 445 kts | 354° |
| 2026-04-26 05:07 | 37.86967 | 13.98647 | 27251 ft | 448 kts | 354° |
| 2026-04-26 05:07 | 37.90048 | 13.98328 | 27552 ft | 450 kts | 354° |
| 2026-04-26 05:08 | 37.93176 | 13.97993 | 27859 ft | 452 kts | 354° |
| 2026-04-26 05:08 | 37.96314 | 13.97641 | 28169 ft | 454 kts | 354° |
| 2026-04-26 05:08 | 37.99465 | 13.97274 | 28465 ft | 456 kts | 354° |
| 2026-04-26 05:08 | 38.02630 | 13.96897 | 28747 ft | 458 kts | 354° |
| 2026-04-26 05:09 | 38.05810 | 13.96513 | 29017 ft | 460 kts | 354° |
| 2026-04-26 05:09 | 38.09014 | 13.96123 | 29277 ft | 462 kts | 354° |
| 2026-04-26 05:09 | 38.12224 | 13.95732 | 29544 ft | 464 kts | 354° |
| 2026-04-26 05:09 | 38.15442 | 13.95340 | 29830 ft | 465 kts | 354° |
| 2026-04-26 05:10 | 38.18659 | 13.94948 | 30212 ft | 464 kts | 354° |
| 2026-04-26 05:10 | 38.21827 | 13.94563 | 30579 ft | 462 kts | 354° |
| 2026-04-26 05:10 | 38.25019 | 13.94174 | 30924 ft | 460 kts | 354° |
| 2026-04-26 05:10 | 38.28202 | 13.93786 | 31216 ft | 460 kts | 354° |
| 2026-04-26 05:11 | 38.31388 | 13.93398 | 31493 ft | 460 kts | 354° |
| 2026-04-26 05:11 | 38.34569 | 13.93009 | 31797 ft | 459 kts | 354° |
| 2026-04-26 05:11 | 38.37739 | 13.92622 | 32139 ft | 457 kts | 354° |
| 2026-04-26 05:11 | 38.40902 | 13.92235 | 32457 ft | 456 kts | 354° |
| 2026-04-26 05:12 | 38.44060 | 13.91849 | 32740 ft | 455 kts | 354° |
| 2026-04-26 05:12 | 38.47220 | 13.91462 | 33023 ft | 454 kts | 354° |
| 2026-04-26 05:12 | 38.50362 | 13.91077 | 33327 ft | 453 kts | 353° |
| 2026-04-26 05:12 | 38.53460 | 13.90696 | 33604 ft | 452 kts | 353° |
| 2026-04-26 05:13 | 38.56598 | 13.90311 | 33871 ft | 452 kts | 353° |
| 2026-04-26 05:13 | 38.59723 | 13.89927 | 34132 ft | 451 kts | 353° |
| 2026-04-26 05:13 | 38.62849 | 13.89542 | 34373 ft | 450 kts | 353° |
| 2026-04-26 05:13 | 38.64917 | 13.89287 | 34516 ft | 450 kts | 353° |
| 2026-04-26 05:14 | 38.68032 | 13.88904 | 34714 ft | 450 kts | 353° |
| 2026-04-26 05:14 | 38.72164 | 13.88394 | 34990 ft | 449 kts | 353° |
| 2026-04-26 05:14 | 38.74266 | 13.88134 | 35135 ft | 448 kts | 353° |
| 2026-04-26 05:14 | 38.77335 | 13.87755 | 35330 ft | 448 kts | 353° |
| 2026-04-26 05:15 | 38.80444 | 13.87371 | 35513 ft | 448 kts | 353° |
| 2026-04-26 05:15 | 38.83550 | 13.86986 | 35710 ft | 447 kts | 353° |
| 2026-04-26 05:15 | 38.86649 | 13.86602 | 35905 ft | 447 kts | 353° |
| 2026-04-26 05:15 | 38.89744 | 13.86219 | 36076 ft | 447 kts | 353° |
| 2026-04-26 05:16 | 38.92837 | 13.85835 | 36274 ft | 446 kts | 353° |
| 2026-04-26 05:16 | 38.95936 | 13.85450 | 36446 ft | 446 kts | 353° |
| 2026-04-26 05:16 | 38.98989 | 13.85070 | 36610 ft | 446 kts | 353° |
| 2026-04-26 05:16 | 39.02083 | 13.84685 | 36772 ft | 445 kts | 353° |
| 2026-04-26 05:17 | 39.05169 | 13.84301 | 36960 ft | 445 kts | 353° |
| 2026-04-26 05:17 | 39.08253 | 13.83917 | 37128 ft | 444 kts | 353° |
| 2026-04-26 05:17 | 39.11331 | 13.83533 | 37280 ft | 444 kts | 353° |
| 2026-04-26 05:17 | 39.14409 | 13.83148 | 37434 ft | 444 kts | 353° |
| 2026-04-26 05:18 | 39.17482 | 13.82764 | 37578 ft | 444 kts | 353° |
| 2026-04-26 05:18 | 39.20560 | 13.82379 | 37675 ft | 445 kts | 353° |
| 2026-04-26 05:18 | 39.26745 | 13.81604 | 37814 ft | 447 kts | 353° |
| 2026-04-26 05:19 | 39.32961 | 13.80825 | 38013 ft | 448 kts | 353° |
| 2026-04-26 05:19 | 39.36029 | 13.80439 | 38122 ft | 448 kts | 353° |
| 2026-04-26 05:19 | 39.39133 | 13.79930 | 38119 ft | 449 kts | 346° |
| 2026-04-26 05:20 | 39.44971 | 13.77112 | 38137 ft | 450 kts | 329° |
| 2026-04-26 05:20 | 39.50146 | 13.72512 | 38141 ft | 451 kts | 323° |
| 2026-04-26 05:21 | 39.55206 | 13.67717 | 38136 ft | 453 kts | 323° |
| 2026-04-26 05:21 | 39.60312 | 13.62911 | 38135 ft | 454 kts | 323° |
| 2026-04-26 05:22 | 39.65446 | 13.58121 | 38132 ft | 454 kts | 324° |
| 2026-04-26 05:22 | 39.70581 | 13.53343 | 38133 ft | 453 kts | 324° |
| 2026-04-26 05:23 | 39.75698 | 13.48577 | 38135 ft | 452 kts | 324° |
| 2026-04-26 05:23 | 39.80764 | 13.43848 | 38138 ft | 451 kts | 324° |
| 2026-04-26 05:24 | 39.85852 | 13.39087 | 38132 ft | 450 kts | 324° |
| 2026-04-26 05:24 | 39.90943 | 13.34315 | 38135 ft | 449 kts | 324° |
| 2026-04-26 05:25 | 39.95975 | 13.29590 | 38132 ft | 448 kts | 324° |
| 2026-04-26 05:25 | 40.01025 | 13.24839 | 38136 ft | 447 kts | 324° |
| 2026-04-26 05:26 | 40.06055 | 13.20097 | 38134 ft | 446 kts | 324° |
| 2026-04-26 05:26 | 40.11077 | 13.15355 | 38136 ft | 445 kts | 324° |
| 2026-04-26 05:27 | 40.16098 | 13.10604 | 38135 ft | 445 kts | 324° |
| 2026-04-26 05:27 | 40.21069 | 13.05892 | 38137 ft | 444 kts | 324° |
| 2026-04-26 05:28 | 40.26074 | 13.01139 | 38139 ft | 444 kts | 324° |
| 2026-04-26 05:28 | 40.31075 | 12.96382 | 38139 ft | 444 kts | 324° |
| 2026-04-26 05:29 | 40.36071 | 12.91620 | 38141 ft | 444 kts | 324° |
| 2026-04-26 05:29 | 40.41070 | 12.86845 | 38135 ft | 444 kts | 324° |
| 2026-04-26 05:30 | 40.46071 | 12.82061 | 38138 ft | 444 kts | 324° |
| 2026-04-26 05:30 | 40.51064 | 12.77275 | 38137 ft | 444 kts | 324° |
| 2026-04-26 05:31 | 40.56020 | 12.72515 | 38137 ft | 444 kts | 324° |
| 2026-04-26 05:31 | 40.61016 | 12.67708 | 38141 ft | 444 kts | 324° |
| 2026-04-26 05:32 | 40.66006 | 12.62898 | 38136 ft | 444 kts | 324° |
| 2026-04-26 05:32 | 40.70999 | 12.58076 | 38132 ft | 444 kts | 324° |
| 2026-04-26 05:33 | 40.75957 | 12.53278 | 38132 ft | 444 kts | 324° |
| 2026-04-26 05:33 | 40.80937 | 12.48449 | 38130 ft | 443 kts | 324° |
| 2026-04-26 05:34 | 40.85883 | 12.43646 | 38137 ft | 443 kts | 324° |
| 2026-04-26 05:34 | 40.90849 | 12.38813 | 38128 ft | 443 kts | 324° |
| 2026-04-26 05:35 | 40.95805 | 12.33980 | 38132 ft | 442 kts | 323° |
| 2026-04-26 05:35 | 41.00759 | 12.29140 | 38129 ft | 442 kts | 323° |
| 2026-04-26 05:36 | 41.05668 | 12.24335 | 38132 ft | 441 kts | 323° |
| 2026-04-26 05:36 | 41.10604 | 12.19495 | 38128 ft | 441 kts | 323° |
| 2026-04-26 05:37 | 41.15533 | 12.14652 | 38127 ft | 440 kts | 323° |
| 2026-04-26 05:37 | 41.20465 | 12.09797 | 38127 ft | 440 kts | 323° |
| 2026-04-26 05:38 | 41.25347 | 12.04982 | 38125 ft | 440 kts | 323° |
| 2026-04-26 05:38 | 41.30262 | 12.00125 | 38128 ft | 439 kts | 323° |
| 2026-04-26 05:39 | 41.35177 | 11.95259 | 38125 ft | 439 kts | 323° |
| 2026-04-26 05:39 | 41.40079 | 11.90396 | 38121 ft | 439 kts | 323° |
| 2026-04-26 05:40 | 41.44952 | 11.85553 | 38122 ft | 439 kts | 323° |
| 2026-04-26 05:40 | 41.49857 | 11.80668 | 38126 ft | 439 kts | 323° |
| 2026-04-26 05:41 | 41.54760 | 11.75777 | 38125 ft | 439 kts | 323° |
| 2026-04-26 05:41 | 41.59621 | 11.70917 | 38128 ft | 439 kts | 323° |
| 2026-04-26 05:42 | 41.64515 | 11.66015 | 38120 ft | 439 kts | 323° |
| 2026-04-26 05:42 | 41.69404 | 11.61108 | 38123 ft | 439 kts | 323° |
| 2026-04-26 05:43 | 41.74285 | 11.56200 | 38128 ft | 439 kts | 322° |
| 2026-04-26 05:43 | 41.79174 | 11.51275 | 38124 ft | 439 kts | 322° |
| 2026-04-26 05:44 | 41.84022 | 11.46382 | 38128 ft | 438 kts | 322° |
| 2026-04-26 05:44 | 41.88894 | 11.41453 | 38123 ft | 438 kts | 322° |
| 2026-04-26 05:45 | 41.93767 | 11.36515 | 38123 ft | 437 kts | 322° |
| 2026-04-26 05:45 | 41.98603 | 11.31605 | 38130 ft | 437 kts | 322° |
| 2026-04-26 05:46 | 42.03447 | 11.26676 | 38124 ft | 436 kts | 322° |
| 2026-04-26 05:46 | 42.08285 | 11.21745 | 38129 ft | 435 kts | 322° |
| 2026-04-26 05:47 | 42.13105 | 11.16821 | 38131 ft | 434 kts | 322° |
| 2026-04-26 05:47 | 42.17892 | 11.11922 | 38131 ft | 434 kts | 322° |
| 2026-04-26 05:48 | 42.22700 | 11.06991 | 38129 ft | 433 kts | 322° |
| 2026-04-26 05:48 | 42.27497 | 11.02063 | 38134 ft | 433 kts | 322° |
| 2026-04-26 05:49 | 42.34645 | 10.94701 | 38129 ft | 432 kts | 322° |
| 2026-04-26 05:50 | 42.39449 | 10.89800 | 38131 ft | 432 kts | 323° |
| 2026-04-26 05:50 | 42.44310 | 10.84994 | 38126 ft | 432 kts | 323° |
| 2026-04-26 05:51 | 42.49148 | 10.80217 | 38125 ft | 432 kts | 323° |
| 2026-04-26 05:51 | 42.54000 | 10.75398 | 38122 ft | 432 kts | 323° |
| 2026-04-26 05:52 | 42.58846 | 10.70566 | 38121 ft | 432 kts | 323° |
| 2026-04-26 05:52 | 42.63685 | 10.65727 | 38120 ft | 432 kts | 323° |
| 2026-04-26 05:53 | 42.68525 | 10.60878 | 38125 ft | 432 kts | 322° |
| 2026-04-26 05:53 | 42.73362 | 10.56021 | 38126 ft | 432 kts | 322° |
| 2026-04-26 05:54 | 42.78164 | 10.51192 | 38128 ft | 431 kts | 322° |
| 2026-04-26 05:54 | 42.82983 | 10.46336 | 38123 ft | 431 kts | 322° |
| 2026-04-26 05:55 | 42.87801 | 10.41470 | 38120 ft | 430 kts | 322° |
| 2026-04-26 05:55 | 42.92615 | 10.36600 | 38126 ft | 430 kts | 322° |
| 2026-04-26 05:56 | 42.97384 | 10.31765 | 38132 ft | 429 kts | 322° |
| 2026-04-26 05:56 | 43.02177 | 10.26896 | 38137 ft | 429 kts | 322° |
| 2026-04-26 05:57 | 43.06976 | 10.22011 | 38130 ft | 429 kts | 322° |
| 2026-04-26 05:57 | 43.11763 | 10.17129 | 38131 ft | 429 kts | 322° |
| 2026-04-26 05:58 | 43.16559 | 10.12227 | 38132 ft | 429 kts | 322° |
| 2026-04-26 05:58 | 43.21314 | 10.07358 | 38131 ft | 430 kts | 322° |
| 2026-04-26 05:59 | 43.26114 | 10.02433 | 38136 ft | 430 kts | 322° |
| 2026-04-26 05:59 | 43.30906 | 9.97506 | 38139 ft | 430 kts | 322° |
| 2026-04-26 06:00 | 43.35708 | 9.92559 | 38142 ft | 431 kts | 322° |
| 2026-04-26 06:00 | 43.40652 | 9.87992 | 38150 ft | 432 kts | 329° |
| 2026-04-26 06:01 | 43.45945 | 9.84024 | 38138 ft | 433 kts | 330° |
| 2026-04-26 06:01 | 43.51223 | 9.80012 | 38143 ft | 433 kts | 329° |
| 2026-04-26 06:02 | 43.56431 | 9.75822 | 38133 ft | 432 kts | 324° |
| 2026-04-26 06:02 | 43.61242 | 9.70949 | 38138 ft | 432 kts | 321° |
| 2026-04-26 06:03 | 43.65226 | 9.66739 | 38142 ft | 432 kts | 321° |
| 2026-04-26 06:03 | 43.70013 | 9.61709 | 38144 ft | 433 kts | 321° |
| 2026-04-26 06:04 | 43.74825 | 9.56699 | 38134 ft | 433 kts | 322° |
| 2026-04-26 06:04 | 43.79654 | 9.51687 | 38138 ft | 433 kts | 322° |
| 2026-04-26 06:05 | 43.84448 | 9.46707 | 38137 ft | 433 kts | 321° |
| 2026-04-26 06:05 | 43.89271 | 9.41686 | 38135 ft | 434 kts | 321° |
| 2026-04-26 06:06 | 43.94098 | 9.36648 | 38135 ft | 434 kts | 321° |
| 2026-04-26 06:06 | 43.98930 | 9.31595 | 38138 ft | 434 kts | 321° |
| 2026-04-26 06:07 | 44.03724 | 9.26570 | 38138 ft | 434 kts | 321° |
| 2026-04-26 06:07 | 44.08541 | 9.21511 | 38138 ft | 434 kts | 321° |
| 2026-04-26 06:08 | 44.13368 | 9.16432 | 38142 ft | 434 kts | 321° |
| 2026-04-26 06:08 | 44.18191 | 9.11346 | 38138 ft | 434 kts | 321° |
| 2026-04-26 06:09 | 44.22980 | 9.06284 | 38133 ft | 434 kts | 321° |
| 2026-04-26 06:09 | 44.27803 | 9.01176 | 38128 ft | 434 kts | 321° |
| 2026-04-26 06:10 | 44.32616 | 8.96069 | 38127 ft | 434 kts | 321° |
| 2026-04-26 06:10 | 44.37428 | 8.90951 | 38127 ft | 434 kts | 321° |
| 2026-04-26 06:11 | 44.42215 | 8.85850 | 38129 ft | 435 kts | 321° |
| 2026-04-26 06:11 | 44.47024 | 8.80713 | 38139 ft | 435 kts | 321° |
| 2026-04-26 06:12 | 44.51839 | 8.75559 | 38125 ft | 435 kts | 321° |
| 2026-04-26 06:12 | 44.56646 | 8.70403 | 38131 ft | 435 kts | 321° |
| 2026-04-26 06:13 | 44.61455 | 8.65234 | 38111 ft | 435 kts | 321° |
| 2026-04-26 06:13 | 44.66262 | 8.60056 | 38115 ft | 435 kts | 320° |
| 2026-04-26 06:14 | 44.71030 | 8.54908 | 38091 ft | 435 kts | 320° |
| 2026-04-26 06:14 | 44.75825 | 8.49721 | 38094 ft | 435 kts | 320° |
| 2026-04-26 06:15 | 44.80618 | 8.44526 | 38107 ft | 434 kts | 320° |
| 2026-04-26 06:15 | 44.85408 | 8.39321 | 38092 ft | 434 kts | 320° |
| 2026-04-26 06:16 | 44.90202 | 8.34101 | 38089 ft | 434 kts | 320° |
| 2026-04-26 06:16 | 44.94954 | 8.28915 | 38089 ft | 434 kts | 320° |
| 2026-04-26 06:17 | 44.99736 | 8.23686 | 38082 ft | 435 kts | 320° |
| 2026-04-26 06:17 | 45.04526 | 8.18437 | 38084 ft | 435 kts | 320° |
| 2026-04-26 06:18 | 45.09304 | 8.13189 | 38086 ft | 435 kts | 320° |
| 2026-04-26 06:18 | 45.14086 | 8.07926 | 38086 ft | 435 kts | 320° |
| 2026-04-26 06:19 | 45.18861 | 8.02658 | 38089 ft | 435 kts | 320° |
| 2026-04-26 06:19 | 45.23638 | 7.97377 | 38095 ft | 435 kts | 320° |
| 2026-04-26 06:20 | 45.28415 | 7.92085 | 38092 ft | 435 kts | 320° |
| 2026-04-26 06:20 | 45.33166 | 7.86809 | 38099 ft | 436 kts | 320° |
| 2026-04-26 06:21 | 45.37943 | 7.81494 | 38089 ft | 436 kts | 320° |
| 2026-04-26 06:21 | 45.42717 | 7.76169 | 38096 ft | 436 kts | 320° |
| 2026-04-26 06:22 | 45.47494 | 7.70829 | 38090 ft | 436 kts | 320° |
| 2026-04-26 06:22 | 45.52260 | 7.65490 | 38103 ft | 435 kts | 320° |
| 2026-04-26 06:23 | 45.56978 | 7.60194 | 38119 ft | 433 kts | 319° |
| 2026-04-26 06:23 | 45.61713 | 7.54866 | 38145 ft | 433 kts | 319° |
| 2026-04-26 06:24 | 45.66444 | 7.49530 | 38172 ft | 431 kts | 319° |
| 2026-04-26 06:24 | 45.71153 | 7.44208 | 38174 ft | 431 kts | 319° |
| 2026-04-26 06:25 | 45.75836 | 7.38903 | 38159 ft | 432 kts | 319° |
| 2026-04-26 06:25 | 45.80576 | 7.33568 | 38163 ft | 434 kts | 321° |
| 2026-04-26 06:26 | 45.85522 | 7.28531 | 38145 ft | 436 kts | 323° |
| 2026-04-26 06:26 | 45.90469 | 7.23580 | 38172 ft | 435 kts | 322° |
| 2026-04-26 06:27 | 45.95433 | 7.18527 | 38147 ft | 437 kts | 322° |
| 2026-04-26 06:27 | 46.00397 | 7.13448 | 38184 ft | 437 kts | 322° |
| 2026-04-26 06:28 | 46.05324 | 7.08397 | 38197 ft | 437 kts | 322° |
| 2026-04-26 06:28 | 46.10280 | 7.03306 | 38181 ft | 437 kts | 322° |
| 2026-04-26 06:29 | 46.15232 | 6.98207 | 38183 ft | 436 kts | 322° |
| 2026-04-26 06:29 | 46.20168 | 6.93112 | 38181 ft | 436 kts | 322° |
| 2026-04-26 06:30 | 46.25103 | 6.88008 | 38161 ft | 435 kts | 322° |
| 2026-04-26 06:30 | 46.29998 | 6.82934 | 38153 ft | 435 kts | 322° |
| 2026-04-26 06:31 | 46.34919 | 6.77820 | 38139 ft | 434 kts | 322° |
| 2026-04-26 06:31 | 46.39815 | 6.72721 | 38155 ft | 432 kts | 322° |
| 2026-04-26 06:32 | 46.44731 | 6.67697 | 38148 ft | 433 kts | 327° |
| 2026-04-26 06:32 | 46.50088 | 6.63777 | 38157 ft | 434 kts | 332° |
| 2026-04-26 06:33 | 46.55560 | 6.60026 | 38165 ft | 435 kts | 332° |
| 2026-04-26 06:33 | 46.61023 | 6.56228 | 38172 ft | 435 kts | 332° |
| 2026-04-26 06:34 | 46.66458 | 6.52396 | 38174 ft | 436 kts | 332° |
| 2026-04-26 06:34 | 46.71920 | 6.48523 | 38177 ft | 437 kts | 332° |
| 2026-04-26 06:35 | 46.77389 | 6.44634 | 38175 ft | 438 kts | 332° |
| 2026-04-26 06:35 | 46.82875 | 6.40727 | 38173 ft | 438 kts | 332° |
| 2026-04-26 06:36 | 46.88327 | 6.36836 | 38171 ft | 439 kts | 332° |
| 2026-04-26 06:36 | 46.93823 | 6.32904 | 38176 ft | 440 kts | 332° |
| 2026-04-26 06:37 | 46.99326 | 6.28957 | 38177 ft | 440 kts | 332° |
| 2026-04-26 06:37 | 47.04840 | 6.24995 | 38172 ft | 440 kts | 332° |
| 2026-04-26 06:38 | 47.10314 | 6.21055 | 38177 ft | 440 kts | 332° |
| 2026-04-26 06:38 | 47.15814 | 6.17091 | 38179 ft | 439 kts | 332° |
| 2026-04-26 06:39 | 47.21308 | 6.13122 | 38170 ft | 439 kts | 332° |
| 2026-04-26 06:39 | 47.26791 | 6.09150 | 38167 ft | 438 kts | 332° |
| 2026-04-26 06:40 | 47.32243 | 6.05272 | 38164 ft | 438 kts | 337° |
| 2026-04-26 06:40 | 47.38181 | 6.03247 | 38175 ft | 441 kts | 355° |
| 2026-04-26 06:41 | 47.44324 | 6.03316 | 38186 ft | 441 kts | 360° |
| 2026-04-26 06:41 | 47.50480 | 6.03570 | 38182 ft | 441 kts | 359° |
| 2026-04-26 06:42 | 47.56583 | 6.03749 | 38206 ft | 441 kts | 359° |
| 2026-04-26 06:42 | 47.62737 | 6.03887 | 38197 ft | 442 kts | 359° |
| 2026-04-26 06:43 | 47.68892 | 6.04022 | 38206 ft | 442 kts | 359° |
| 2026-04-26 06:43 | 47.75021 | 6.04163 | 38195 ft | 443 kts | 359° |
| 2026-04-26 06:44 | 47.81183 | 6.04354 | 38205 ft | 443 kts | 359° |
| 2026-04-26 06:44 | 47.87365 | 6.04552 | 38200 ft | 444 kts | 359° |
| 2026-04-26 06:45 | 47.93550 | 6.04779 | 38206 ft | 444 kts | 360° |
| 2026-04-26 06:45 | 47.99746 | 6.05057 | 38215 ft | 445 kts | 360° |
| 2026-04-26 06:46 | 48.05910 | 6.05325 | 38222 ft | 445 kts | 360° |
| 2026-04-26 06:46 | 48.12114 | 6.05515 | 38232 ft | 445 kts | 359° |
| 2026-04-26 06:47 | 48.18318 | 6.05636 | 38239 ft | 445 kts | 359° |
| 2026-04-26 06:47 | 48.24488 | 6.05771 | 38241 ft | 445 kts | 359° |
| 2026-04-26 06:48 | 48.30691 | 6.05916 | 38240 ft | 445 kts | 359° |
| 2026-04-26 06:48 | 48.36894 | 6.06144 | 38240 ft | 445 kts | 0° |
| 2026-04-26 06:49 | 48.43039 | 6.06467 | 38234 ft | 444 kts | 0° |
| 2026-04-26 06:49 | 48.49223 | 6.06787 | 38240 ft | 444 kts | 360° |
| 2026-04-26 06:50 | 48.55403 | 6.07094 | 38234 ft | 443 kts | 360° |
| 2026-04-26 06:50 | 48.61567 | 6.07395 | 38237 ft | 443 kts | 360° |
| 2026-04-26 06:51 | 48.67697 | 6.07695 | 38238 ft | 442 kts | 360° |
| 2026-04-26 06:51 | 48.76933 | 6.08151 | 38244 ft | 442 kts | 360° |
| 2026-04-26 06:52 | 48.82045 | 6.08403 | 38240 ft | 442 kts | 360° |
| 2026-04-26 06:52 | 48.88188 | 6.08673 | 38264 ft | 442 kts | 359° |
| 2026-04-26 06:53 | 48.94352 | 6.08929 | 38264 ft | 442 kts | 359° |
| 2026-04-26 06:53 | 49.00463 | 6.09187 | 38269 ft | 442 kts | 359° |
| 2026-04-26 06:54 | 49.06636 | 6.09452 | 38263 ft | 442 kts | 359° |
| 2026-04-26 06:54 | 49.12768 | 6.09716 | 38257 ft | 443 kts | 359° |
| 2026-04-26 06:55 | 49.18930 | 6.09982 | 38250 ft | 443 kts | 359° |
| 2026-04-26 06:55 | 49.25061 | 6.10288 | 38245 ft | 443 kts | 360° |
| 2026-04-26 06:56 | 49.31231 | 6.10624 | 38238 ft | 444 kts | 0° |
| 2026-04-26 06:56 | 49.37412 | 6.10956 | 38246 ft | 444 kts | 0° |
| 2026-04-26 06:57 | 49.43589 | 6.11284 | 38252 ft | 444 kts | 360° |
| 2026-04-26 06:57 | 49.49776 | 6.11602 | 38264 ft | 444 kts | 359° |
| 2026-04-26 06:58 | 49.55961 | 6.11836 | 38267 ft | 444 kts | 359° |
| 2026-04-26 06:58 | 49.59025 | 6.11943 | 37961 ft | 450 kts | 359° |
| 2026-04-26 06:58 | 49.62161 | 6.12056 | 37478 ft | 450 kts | 359° |
| 2026-04-26 06:59 | 49.65290 | 6.12173 | 36907 ft | 448 kts | 359° |
| 2026-04-26 06:59 | 49.68402 | 6.12292 | 36360 ft | 447 kts | 359° |
| 2026-04-26 06:59 | 49.71502 | 6.12411 | 35914 ft | 443 kts | 359° |
| 2026-04-26 06:59 | 49.74569 | 6.12530 | 35490 ft | 439 kts | 359° |
| 2026-04-26 07:00 | 49.77614 | 6.12648 | 35072 ft | 436 kts | 359° |
| 2026-04-26 07:00 | 49.80641 | 6.12764 | 34654 ft | 433 kts | 359° |
| 2026-04-26 07:00 | 49.83646 | 6.12854 | 34239 ft | 429 kts | 356° |
| 2026-04-26 07:00 | 49.86598 | 6.12413 | 33775 ft | 423 kts | 347° |
| 2026-04-26 07:01 | 49.89412 | 6.11264 | 33437 ft | 414 kts | 338° |
| 2026-04-26 07:01 | 49.92061 | 6.09695 | 33027 ft | 410 kts | 336° |
| 2026-04-26 07:01 | 49.94716 | 6.08107 | 32662 ft | 406 kts | 337° |
| 2026-04-26 07:01 | 49.97351 | 6.06564 | 32247 ft | 403 kts | 338° |
| 2026-04-26 07:02 | 49.99975 | 6.05054 | 31874 ft | 400 kts | 338° |
| 2026-04-26 07:02 | 50.02577 | 6.03566 | 31479 ft | 397 kts | 338° |
| 2026-04-26 07:02 | 50.05161 | 6.02086 | 31088 ft | 395 kts | 338° |
| 2026-04-26 07:02 | 50.07703 | 6.00626 | 30725 ft | 392 kts | 338° |
| 2026-04-26 07:03 | 50.10255 | 5.99158 | 30349 ft | 390 kts | 338° |
| 2026-04-26 07:03 | 50.12795 | 5.97696 | 29906 ft | 388 kts | 338° |
| 2026-04-26 07:03 | 50.15317 | 5.96241 | 29481 ft | 385 kts | 338° |
| 2026-04-26 07:03 | 50.17820 | 5.94797 | 29088 ft | 381 kts | 338° |
| 2026-04-26 07:04 | 50.20301 | 5.93363 | 28707 ft | 378 kts | 338° |
| 2026-04-26 07:04 | 50.22762 | 5.91939 | 28299 ft | 375 kts | 338° |
| 2026-04-26 07:04 | 50.25200 | 5.90527 | 27929 ft | 372 kts | 338° |
| 2026-04-26 07:04 | 50.27621 | 5.89122 | 27541 ft | 370 kts | 338° |
| 2026-04-26 07:05 | 50.30029 | 5.87724 | 27165 ft | 367 kts | 338° |
| 2026-04-26 07:05 | 50.32418 | 5.86335 | 26787 ft | 365 kts | 338° |
| 2026-04-26 07:05 | 50.34793 | 5.84954 | 26424 ft | 363 kts | 338° |
| 2026-04-26 07:05 | 50.37122 | 5.83598 | 26071 ft | 361 kts | 338° |
| 2026-04-26 07:06 | 50.39474 | 5.82226 | 25698 ft | 359 kts | 338° |
| 2026-04-26 07:06 | 50.41810 | 5.80862 | 25340 ft | 357 kts | 338° |
| 2026-04-26 07:06 | 50.44141 | 5.79500 | 24978 ft | 356 kts | 338° |
| 2026-04-26 07:06 | 50.46456 | 5.78146 | 24609 ft | 355 kts | 338° |
| 2026-04-26 07:07 | 50.48766 | 5.76793 | 24263 ft | 354 kts | 338° |
| 2026-04-26 07:07 | 50.51073 | 5.75441 | 23894 ft | 353 kts | 338° |
| 2026-04-26 07:07 | 50.53372 | 5.74092 | 23481 ft | 352 kts | 338° |
| 2026-04-26 07:07 | 50.55658 | 5.72750 | 23086 ft | 350 kts | 338° |
| 2026-04-26 07:08 | 50.57977 | 5.71628 | 22690 ft | 349 kts | 352° |
| 2026-04-26 07:08 | 50.60395 | 5.71712 | 22257 ft | 350 kts | 11° |
| 2026-04-26 07:08 | 50.62755 | 5.72655 | 21906 ft | 348 kts | 14° |
| 2026-04-26 07:08 | 50.65059 | 5.73686 | 21510 ft | 348 kts | 15° |
| 2026-04-26 07:09 | 50.67375 | 5.74747 | 21155 ft | 346 kts | 15° |
| 2026-04-26 07:09 | 50.69684 | 5.75797 | 20801 ft | 344 kts | 15° |
| 2026-04-26 07:09 | 50.71987 | 5.76832 | 20439 ft | 342 kts | 14° |
| 2026-04-26 07:09 | 50.74277 | 5.77851 | 20090 ft | 341 kts | 14° |
| 2026-04-26 07:10 | 50.81086 | 5.80852 | 19059 ft | 336 kts | 14° |
| 2026-04-26 07:11 | 50.85567 | 5.82823 | 18341 ft | 334 kts | 14° |
| 2026-04-26 07:11 | 50.87803 | 5.83805 | 17963 ft | 332 kts | 14° |
| 2026-04-26 07:11 | 50.90028 | 5.84786 | 17608 ft | 330 kts | 14° |
| 2026-04-26 07:11 | 50.92238 | 5.85762 | 17253 ft | 328 kts | 14° |
| 2026-04-26 07:12 | 50.94433 | 5.86732 | 16916 ft | 326 kts | 14° |
| 2026-04-26 07:12 | 50.96607 | 5.87692 | 16592 ft | 324 kts | 14° |
| 2026-04-26 07:12 | 50.98774 | 5.88651 | 16243 ft | 322 kts | 14° |
| 2026-04-26 07:12 | 51.00924 | 5.89602 | 15913 ft | 320 kts | 14° |
| 2026-04-26 07:13 | 51.03062 | 5.90549 | 15586 ft | 318 kts | 14° |
| 2026-04-26 07:13 | 51.05166 | 5.91482 | 15258 ft | 316 kts | 14° |
| 2026-04-26 07:13 | 51.07284 | 5.92423 | 14930 ft | 315 kts | 14° |
| 2026-04-26 07:13 | 51.09404 | 5.93266 | 14589 ft | 312 kts | 6° |
| 2026-04-26 07:14 | 51.11550 | 5.93136 | 14287 ft | 308 kts | 351° |
| 2026-04-26 07:14 | 51.13668 | 5.92644 | 13945 ft | 307 kts | 351° |
| 2026-04-26 07:14 | 51.15781 | 5.92160 | 13583 ft | 305 kts | 351° |
| 2026-04-26 07:14 | 51.17858 | 5.91704 | 13241 ft | 303 kts | 351° |
| 2026-04-26 07:15 | 51.19941 | 5.91254 | 12936 ft | 301 kts | 351° |
| 2026-04-26 07:15 | 51.22016 | 5.90812 | 12607 ft | 299 kts | 351° |
| 2026-04-26 07:15 | 51.24027 | 5.90094 | 12271 ft | 296 kts | 335° |
| 2026-04-26 07:15 | 51.25722 | 5.88287 | 12005 ft | 292 kts | 315° |
| 2026-04-26 07:16 | 51.26984 | 5.85752 | 11690 ft | 291 kts | 306° |
| 2026-04-26 07:16 | 51.28116 | 5.83133 | 11373 ft | 290 kts | 306° |
| 2026-04-26 07:16 | 51.29245 | 5.80473 | 11062 ft | 288 kts | 306° |
| 2026-04-26 07:16 | 51.30370 | 5.77822 | 10754 ft | 287 kts | 306° |
| 2026-04-26 07:17 | 51.31489 | 5.75218 | 10593 ft | 279 kts | 309° |
| 2026-04-26 07:17 | 51.32841 | 5.73066 | 10463 ft | 270 kts | 321° |
| 2026-04-26 07:17 | 51.34285 | 5.71191 | 10082 ft | 270 kts | 322° |
| 2026-04-26 07:17 | 51.35780 | 5.69306 | 9436 ft | 275 kts | 322° |
| 2026-04-26 07:18 | 51.37279 | 5.67366 | 8824 ft | 280 kts | 316° |
| 2026-04-26 07:18 | 51.38335 | 5.64730 | 8198 ft | 286 kts | 290° |
| 2026-04-26 07:18 | 51.38544 | 5.61553 | 7615 ft | 292 kts | 265° |
| 2026-04-26 07:18 | 51.37938 | 5.58445 | 7165 ft | 292 kts | 250° |
| 2026-04-26 07:19 | 51.37105 | 5.55476 | 6666 ft | 290 kts | 248° |
| 2026-04-26 07:19 | 51.36268 | 5.52592 | 6177 ft | 288 kts | 248° |
| 2026-04-26 07:19 | 51.35423 | 5.49695 | 5671 ft | 287 kts | 245° |
| 2026-04-26 07:19 | 51.34214 | 5.47159 | 5169 ft | 290 kts | 223° |
| 2026-04-26 07:20 | 51.32639 | 5.45159 | 4722 ft | 288 kts | 218° |
| 2026-04-26 07:20 | 51.31043 | 5.43250 | 4236 ft | 285 kts | 218° |
| 2026-04-26 07:20 | 51.29454 | 5.41372 | 3778 ft | 283 kts | 218° |
| 2026-04-26 07:20 | 51.27879 | 5.39498 | 3338 ft | 281 kts | 218° |
| 2026-04-26 07:21 | 51.26319 | 5.37640 | 2984 ft | 279 kts | 217° |
| 2026-04-26 07:21 | 51.24805 | 5.35826 | 2706 ft | 270 kts | 217° |
| 2026-04-26 07:21 | 51.23340 | 5.34026 | 2419 ft | 263 kts | 217° |
| 2026-04-26 07:21 | 51.22028 | 5.32032 | 2060 ft | 261 kts | 238° |
| 2026-04-26 07:22 | 51.21484 | 5.29409 | 2031 ft | 243 kts | 269° |
| 2026-04-26 07:22 | 51.21826 | 5.26873 | 1967 ft | 229 kts | 300° |
| 2026-04-26 07:22 | 51.22586 | 5.24780 | 1984 ft | 208 kts | 302° |
| 2026-04-26 07:22 | 51.23273 | 5.22884 | 1971 ft | 186 kts | 303° |
| 2026-04-26 07:23 | 51.23950 | 5.21236 | 1971 ft | 172 kts | 321° |
| 2026-04-26 07:23 | 51.24931 | 5.20283 | 2025 ft | 164 kts | 345° |
| 2026-04-26 07:23 | 51.26063 | 5.20096 | 1982 ft | 164 kts | 3° |
| 2026-04-26 07:23 | 51.27155 | 5.20248 | 1977 ft | 151 kts | 28° |
| 2026-04-26 07:24 | 51.28071 | 5.21112 | 1993 ft | 158 kts | 31° |
| 2026-04-26 07:24 | 51.29026 | 5.21918 | 2004 ft | 150 kts | 30° |
| 2026-04-26 07:24 | 51.29933 | 5.22631 | 1994 ft | 145 kts | 29° |
| 2026-04-26 07:24 | 51.30827 | 5.23344 | 2032 ft | 144 kts | 29° |
| 2026-04-26 07:25 | 51.31717 | 5.24047 | 2004 ft | 141 kts | 29° |
| 2026-04-26 07:25 | 51.32605 | 5.24744 | 2009 ft | 143 kts | 29° |
| 2026-04-26 07:25 | 51.33503 | 5.25444 | 2001 ft | 144 kts | 29° |
| 2026-04-26 07:25 | 51.34397 | 5.26138 | 2001 ft | 143 kts | 28° |
| 2026-04-26 07:26 | 51.35293 | 5.26834 | 2041 ft | 144 kts | 29° |
| 2026-04-26 07:26 | 51.36192 | 5.27617 | 1959 ft | 145 kts | 35° |
| 2026-04-26 07:26 | 51.37015 | 5.28498 | 1810 ft | 142 kts | 38° |
| 2026-04-26 07:26 | 51.37824 | 5.29407 | 1612 ft | 141 kts | 38° |
| 2026-04-26 07:27 | 51.38623 | 5.30295 | 1426 ft | 139 kts | 37° |
| 2026-04-26 07:27 | 51.39414 | 5.31177 | 1255 ft | 138 kts | 37° |
| 2026-04-26 07:27 | 51.40197 | 5.32053 | 1054 ft | 135 kts | 37° |
| 2026-04-26 07:27 | 51.40950 | 5.32898 | 875 ft | 132 kts | 38° |
| 2026-04-26 07:28 | 51.41700 | 5.33740 | 707 ft | 132 kts | 38° |
| 2026-04-26 07:28 | 51.42451 | 5.34585 | 527 ft | 133 kts | 36° |
| 2026-04-26 07:28 | 51.43203 | 5.35415 | 317 ft | 128 kts | 37° |
| 2026-04-26 07:28 | 51.43928 | 5.36229 | 122 ft | 124 kts | 37° |
| 2026-04-26 07:29 | 51.44555 | 5.36942 | 69 ft | 90 kts | 35° |
| 2026-04-26 07:29 | 51.44891 | 5.37321 | 70 ft | 35 kts | 36° |
| 2026-04-26 07:29 | 51.45087 | 5.37535 | 70 ft | 32 kts | 34° |
| 2026-04-26 07:29 | 51.45258 | 5.37720 | 78 ft | 22 kts | 33° |
| 2026-04-26 07:30 | 51.45365 | 5.37840 | 84 ft | 16 kts | 35° |
| 2026-04-26 07:30 | 51.45452 | 5.37943 | 85 ft | 15 kts | 35° |
| 2026-04-26 07:30 | 51.45532 | 5.38044 | 80 ft | 10 kts | 59° |
| 2026-04-26 07:30 | 51.45522 | 5.38140 | 68 ft | 8 kts | 124° |
| 2026-04-26 07:31 | 51.45490 | 5.38215 | 74 ft | 0 kts | 125° |
| 2026-04-26 07:34 | 51.45486 | 5.38223 | 74 ft | 5 kts | 125° |
| 2026-04-26 07:34 | 51.45451 | 5.38302 | 69 ft | 7 kts | 125° |
| 2026-04-26 07:34 | 51.45447 | 5.38311 | 68 ft | 2 kts | 126° |
| 2026-04-26 07:35 | 51.45424 | 5.38364 | 70 ft | 5 kts | 126° |
| 2026-04-26 07:35 | 51.45392 | 5.38392 | 71 ft | 5 kts | 167° |
| 2026-04-26 07:35 | 51.45356 | 5.38412 | 67 ft | 5 kts | 148° |
| 2026-04-26 07:35 | 51.45334 | 5.38458 | 73 ft | 5 kts | 124° |
| 2026-04-26 07:36 | 51.45333 | 5.38460 | 73 ft | 0 kts | 124° |